createdAt,value
2022-10-21T00:00:50.180Z,81.94
2022-10-21T00:03:20.633Z,82.07
2022-10-21T00:05:49.519Z,81.43
2022-10-21T00:08:18.450Z,81.63
2022-10-21T00:10:46.261Z,82.32
2022-10-21T00:13:14.578Z,83.65
2022-10-21T00:15:42.233Z,82.84
2022-10-21T00:18:10.323Z,81.97
2022-10-21T00:20:41.145Z,81.60
2022-10-21T00:23:09.515Z,81.91
2022-10-21T00:25:39.882Z,81.72
2022-10-21T00:28:08.029Z,82.27
2022-10-21T00:30:35.751Z,81.97
2022-10-21T00:33:03.856Z,82.45
2022-10-21T00:35:34.433Z,82.30
2022-10-21T00:38:04.018Z,84.19
2022-10-21T00:40:31.781Z,83.25
2022-10-21T00:43:00.005Z,82.57
2022-10-21T00:45:29.549Z,82.65
2022-10-21T00:48:03.714Z,82.46
2022-10-21T00:50:37.515Z,82.25
2022-10-21T00:53:15.387Z,82.40
2022-10-21T00:55:48.527Z,82.77
2022-10-21T00:58:18.312Z,81.95
2022-10-21T01:00:46.096Z,81.91
2022-10-21T01:03:14.512Z,82.12
2022-10-21T01:05:43.337Z,81.79
2022-10-21T01:08:13.040Z,81.69
2022-10-21T01:10:41.135Z,81.99
2022-10-21T01:13:20.806Z,82.29
2022-10-21T01:15:57.193Z,82.40
2022-10-21T01:18:32.851Z,81.85
2022-10-21T01:21:11.033Z,82.00
2022-10-21T01:24:09.601Z,82.42
2022-10-21T01:27:13.406Z,82.13
2022-10-21T01:30:20.691Z,82.14
2022-10-21T01:35:50.658Z,81.74
2022-10-21T01:38:25.325Z,81.55
2022-10-21T01:40:58.596Z,81.89
2022-10-21T01:43:35.245Z,82.12
2022-10-21T01:46:08.234Z,81.78
2022-10-21T01:48:42.928Z,81.84
2022-10-21T01:51:13.354Z,81.98
2022-10-21T01:53:45.293Z,82.06
2022-10-21T01:56:15.648Z,82.04
2022-10-21T01:58:46.601Z,82.15
2022-10-21T02:01:16.499Z,82.36
2022-10-21T02:03:49.752Z,81.64
2022-10-21T02:06:18.269Z,81.59
2022-10-21T02:08:46.200Z,81.63
2022-10-21T02:11:15.581Z,81.78
2022-10-21T02:13:49.473Z,81.77
2022-10-21T02:16:22.443Z,81.91
2022-10-21T02:18:51.446Z,82.47
2022-10-21T02:21:22.136Z,81.98
2022-10-21T02:23:54.437Z,81.95
2022-10-21T02:26:23.483Z,81.79
2022-10-21T02:28:52.761Z,81.62
2022-10-21T02:31:36.111Z,81.46
2022-10-21T02:34:18.998Z,81.93
2022-10-21T02:36:55.537Z,81.63
2022-10-21T02:39:31.092Z,81.81
2022-10-21T02:42:01.313Z,81.97
2022-10-21T02:44:29.058Z,81.67
2022-10-21T02:46:57.495Z,81.88
2022-10-21T02:49:26.579Z,81.88
2022-10-21T02:51:54.896Z,81.91
2022-10-21T02:54:22.806Z,81.65
2022-10-21T02:56:51.219Z,81.30
2022-10-21T02:59:18.856Z,81.99
2022-10-21T03:01:46.814Z,81.88
2022-10-21T03:04:14.477Z,82.02
2022-10-21T03:06:44.030Z,81.77
2022-10-21T03:09:11.661Z,81.74
2022-10-21T03:11:39.948Z,81.36
2022-10-21T03:14:07.641Z,81.31
2022-10-21T03:16:36.153Z,81.45
2022-10-21T03:19:03.870Z,81.67
2022-10-21T03:21:31.872Z,81.42
2022-10-21T03:24:00.873Z,81.51
2022-10-21T03:26:28.757Z,81.60
2022-10-21T03:28:56.402Z,81.48
2022-10-21T03:31:24.414Z,81.52
2022-10-21T03:33:52.068Z,81.20
2022-10-21T03:36:20.542Z,81.13
2022-10-21T03:38:48.198Z,80.89
2022-10-21T03:41:17.732Z,80.92
2022-10-21T03:43:45.431Z,80.95
2022-10-21T03:46:13.546Z,81.37
2022-10-21T03:48:41.198Z,81.43
2022-10-21T03:51:09.287Z,81.13
2022-10-21T03:53:43.865Z,81.11
2022-10-21T03:56:12.831Z,80.85
2022-10-21T03:58:42.529Z,80.92
2022-10-21T04:01:12.737Z,81.37
2022-10-21T04:03:40.619Z,81.33
2022-10-21T04:06:08.424Z,81.08
2022-10-21T04:08:36.108Z,81.07
2022-10-21T04:11:04.433Z,80.71
2022-10-21T04:13:32.718Z,80.42
2022-10-21T04:16:03.884Z,80.66
2022-10-21T04:18:31.890Z,80.85
2022-10-21T04:20:59.558Z,81.11
2022-10-21T04:23:27.270Z,81.34
2022-10-21T04:25:54.931Z,81.40
2022-10-21T04:28:22.911Z,81.56
2022-10-21T04:30:51.250Z,81.46
2022-10-21T04:33:20.898Z,81.43
2022-10-21T04:35:48.657Z,81.38
2022-10-21T04:38:16.550Z,81.62
2022-10-21T04:40:44.209Z,81.44
2022-10-21T04:43:12.586Z,81.45
2022-10-21T04:45:40.592Z,81.46
2022-10-21T04:48:09.032Z,81.43
2022-10-21T04:50:38.027Z,81.29
2022-10-21T04:53:06.175Z,81.32
2022-10-21T04:55:33.829Z,81.32
2022-10-21T04:58:01.503Z,81.19
2022-10-21T05:00:29.160Z,81.10
2022-10-21T05:02:56.802Z,81.29
2022-10-21T05:05:24.462Z,81.32
2022-10-21T05:07:54.361Z,81.33
2022-10-21T05:10:22.410Z,81.22
2022-10-21T05:12:50.576Z,81.18
2022-10-21T05:15:18.435Z,81.36
2022-10-21T05:17:46.089Z,81.05
2022-10-21T05:20:13.935Z,81.12
2022-10-21T05:22:42.037Z,81.48
2022-10-21T05:25:11.551Z,81.35
2022-10-21T05:27:39.715Z,81.42
2022-10-21T05:30:08.711Z,81.16
2022-10-21T05:32:36.750Z,81.48
2022-10-21T05:35:04.770Z,81.46
2022-10-21T05:37:32.877Z,81.30
2022-10-21T05:40:00.648Z,81.34
2022-10-21T05:42:29.654Z,81.20
2022-10-21T05:44:57.289Z,80.97
2022-10-21T05:47:25.533Z,81.20
2022-10-21T05:49:53.519Z,81.26
2022-10-21T05:52:21.451Z,80.91
2022-10-21T05:54:49.159Z,81.45
2022-10-21T05:57:17.256Z,81.89
2022-10-21T05:59:46.247Z,81.33
2022-10-21T06:02:14.332Z,81.01
2022-10-21T06:04:41.970Z,81.10
2022-10-21T06:07:10.077Z,81.23
2022-10-21T06:09:38.725Z,81.24
2022-10-21T06:12:07.477Z,81.16
2022-10-21T06:14:36.244Z,81.23
2022-10-21T06:17:05.962Z,81.49
2022-10-21T06:19:33.633Z,81.13
2022-10-21T06:22:01.276Z,81.16
2022-10-21T06:24:29.906Z,81.23
2022-10-21T06:26:58.027Z,81.42
2022-10-21T06:29:25.778Z,81.38
2022-10-21T06:31:53.711Z,81.30
2022-10-21T06:34:22.806Z,81.46
2022-10-21T06:36:50.842Z,81.49
2022-10-21T06:39:18.472Z,81.46
2022-10-21T06:41:46.778Z,81.54
2022-10-21T06:44:25.855Z,81.07
2022-10-21T06:46:54.549Z,80.74
2022-10-21T06:49:23.583Z,80.55
2022-10-21T06:51:51.958Z,80.59
2022-10-21T06:54:19.678Z,80.72
2022-10-21T06:56:48.010Z,80.71
2022-10-21T06:59:15.671Z,80.62
2022-10-21T07:02:00.874Z,80.97
2022-10-21T07:04:30.622Z,80.96
2022-10-21T07:06:58.873Z,80.98
2022-10-21T07:09:26.951Z,80.89
2022-10-21T07:11:55.342Z,81.00
2022-10-21T07:14:22.973Z,80.96
2022-10-21T07:16:52.477Z,80.82
2022-10-21T07:19:20.250Z,80.67
2022-10-21T07:21:50.036Z,80.75
2022-10-21T07:24:22.151Z,80.69
2022-10-21T07:26:51.534Z,80.54
2022-10-21T07:29:19.871Z,80.54
2022-10-21T07:31:48.158Z,80.48
2022-10-21T07:34:15.888Z,80.34
2022-10-21T07:36:48.024Z,80.23
2022-10-21T07:39:18.416Z,80.00
2022-10-21T07:41:48.469Z,79.81
2022-10-21T07:44:16.520Z,79.66
2022-10-21T07:46:46.327Z,79.85
2022-10-21T07:49:14.731Z,79.68
2022-10-21T07:51:43.474Z,79.54
2022-10-21T07:54:11.107Z,79.42
2022-10-21T07:56:43.457Z,79.12
2022-10-21T07:59:13.249Z,79.06
2022-10-21T08:01:44.370Z,78.81
2022-10-21T08:04:13.938Z,77.92
2022-10-21T08:06:42.357Z,77.38
2022-10-21T08:09:10.336Z,77.07
2022-10-21T08:11:38.573Z,76.92
2022-10-21T08:14:09.278Z,76.67
2022-10-21T08:16:37.832Z,76.17
2022-10-21T08:19:06.426Z,76.03
2022-10-21T08:21:35.823Z,76.04
2022-10-21T08:24:04.426Z,76.17
2022-10-21T08:26:32.947Z,76.25
2022-10-21T08:29:00.809Z,76.26
2022-10-21T08:31:30.113Z,77.23
2022-10-21T08:33:58.159Z,77.61
2022-10-21T08:36:27.317Z,77.23
2022-10-21T08:38:55.566Z,77.23
2022-10-21T08:41:47.685Z,77.06
2022-10-21T08:44:28.462Z,77.35
2022-10-21T08:47:03.500Z,78.31
2022-10-21T08:49:38.185Z,78.30
2022-10-21T08:52:12.141Z,80.45
2022-10-21T08:54:45.663Z,81.83
2022-10-21T08:57:14.166Z,82.52
2022-10-21T08:59:42.787Z,83.06
2022-10-21T09:02:33.165Z,84.64
2022-10-21T09:05:19.590Z,85.47
2022-10-21T09:07:58.407Z,87.34
2022-10-21T09:10:38.862Z,88.29
2022-10-21T09:13:13.910Z,87.95
2022-10-21T09:15:53.322Z,87.04
2022-10-21T09:18:33.842Z,86.97
2022-10-21T09:21:08.415Z,86.61
2022-10-21T09:23:43.910Z,86.08
2022-10-21T09:26:28.011Z,85.84
2022-10-21T09:28:58.257Z,83.75
2022-10-21T09:31:26.605Z,82.59
2022-10-21T09:34:00.441Z,81.70
2022-10-21T09:36:34.886Z,80.80
2022-10-21T09:39:08.233Z,80.41
2022-10-21T09:41:41.767Z,79.85
2022-10-21T09:44:15.873Z,79.43
2022-10-21T09:46:46.348Z,79.22
2022-10-21T09:52:14.298Z,77.46
2022-10-21T09:54:43.972Z,77.11
2022-10-21T09:57:15.559Z,75.96
2022-10-21T09:59:59.455Z,75.48
2022-10-21T10:02:33.109Z,75.95
2022-10-21T10:05:05.347Z,76.22
2022-10-21T10:07:36.776Z,74.38
2022-10-21T10:10:31.920Z,73.84
2022-10-21T10:13:01.373Z,74.38
2022-10-21T10:15:36.176Z,75.35
2022-10-21T10:18:04.898Z,74.27
2022-10-21T10:20:33.871Z,73.89
2022-10-21T10:23:11.277Z,73.60
2022-10-21T10:25:40.370Z,73.35
2022-10-21T10:28:21.460Z,73.36
2022-10-21T10:30:53.192Z,73.70
2022-10-21T10:33:24.921Z,73.35
2022-10-21T10:35:57.387Z,74.07
2022-10-21T10:38:29.758Z,74.19
2022-10-21T10:41:06.146Z,73.31
2022-10-21T10:43:36.142Z,73.05
2022-10-21T10:46:08.046Z,72.53
2022-10-21T10:48:38.969Z,70.97
2022-10-21T10:51:24.470Z,71.15
2022-10-21T10:54:02.245Z,70.67
2022-10-21T10:56:33.537Z,73.02
2022-10-21T10:59:22.136Z,73.36
2022-10-21T11:01:58.634Z,73.03
2022-10-21T11:04:33.786Z,74.22
2022-10-21T11:07:14.235Z,72.24
2022-10-21T11:09:41.902Z,72.04
2022-10-21T11:12:20.721Z,70.58
2022-10-21T11:14:52.676Z,70.44
2022-10-21T11:17:26.591Z,70.07
2022-10-21T11:20:00.414Z,68.58
2022-10-21T11:22:41.170Z,67.52
2022-10-21T11:25:19.520Z,68.14
2022-10-21T11:28:01.414Z,67.65
2022-10-21T11:30:38.006Z,67.33
2022-10-21T11:33:16.137Z,68.29
2022-10-21T11:35:55.505Z,68.29
2022-10-21T11:38:41.278Z,67.85
2022-10-21T11:41:27.174Z,69.21
2022-10-21T11:44:09.433Z,69.01
2022-10-21T11:46:46.299Z,70.04
2022-10-21T11:49:37.304Z,69.46
2022-10-21T11:52:18.405Z,68.13
2022-10-21T11:55:12.194Z,68.42
2022-10-21T11:57:52.824Z,68.16
2022-10-21T12:00:23.399Z,69.37
2022-10-21T12:03:20.734Z,68.63
2022-10-21T12:05:56.143Z,69.16
2022-10-21T12:08:29.269Z,69.59
2022-10-21T12:11:06.779Z,69.46
2022-10-21T12:13:40.819Z,68.46
2022-10-21T12:16:11.698Z,69.34
2022-10-21T12:18:44.502Z,69.61
2022-10-21T12:21:17.290Z,69.70
2022-10-21T12:23:47.490Z,69.88
2022-10-21T12:26:23.513Z,70.12
2022-10-21T12:29:00.058Z,70.93
2022-10-21T12:31:40.378Z,70.06
2022-10-21T12:34:11.271Z,71.99
2022-10-21T12:36:45.457Z,70.75
2022-10-21T12:39:38.770Z,70.38
2022-10-21T12:42:13.897Z,71.31
2022-10-21T12:44:47.223Z,69.68
2022-10-21T12:47:30.119Z,71.12
2022-10-21T12:50:07.822Z,70.15
2022-10-21T12:52:38.735Z,70.32
2022-10-21T12:55:18.494Z,70.31
2022-10-21T12:57:56.806Z,71.45
2022-10-21T13:00:53.538Z,71.38
2022-10-21T13:03:23.175Z,71.53
2022-10-21T13:06:03.834Z,71.77
2022-10-21T13:08:41.402Z,72.81
2022-10-21T13:11:37.860Z,72.14
2022-10-21T13:14:40.173Z,72.98
2022-10-21T13:17:32.542Z,71.58
2022-10-21T13:20:39.616Z,71.44
2022-10-21T13:23:31.971Z,71.33
2022-10-21T13:26:14.536Z,71.63
2022-10-21T13:28:43.031Z,71.47
2022-10-21T13:31:22.392Z,71.50
2022-10-21T13:33:53.570Z,71.09
2022-10-21T13:39:21.305Z,70.34
2022-10-21T13:41:59.523Z,70.24
2022-10-21T13:44:31.581Z,70.04
2022-10-21T13:47:19.566Z,70.63
2022-10-21T13:49:51.987Z,71.21
2022-10-21T13:52:20.536Z,71.80
2022-10-21T13:54:57.254Z,71.14
2022-10-21T13:57:29.424Z,70.67
2022-10-21T14:00:01.428Z,72.41
2022-10-21T14:02:31.510Z,72.75
2022-10-21T14:04:59.177Z,73.09
2022-10-21T14:07:28.121Z,73.62
2022-10-21T14:09:58.089Z,72.54
2022-10-21T14:12:29.681Z,72.83
2022-10-21T14:15:02.565Z,73.17
2022-10-21T14:17:33.179Z,73.35
2022-10-21T14:20:07.532Z,73.23
2022-10-21T14:22:35.750Z,72.92
2022-10-21T14:25:04.027Z,73.35
2022-10-21T14:27:34.143Z,73.67
2022-10-21T14:30:05.598Z,73.33
2022-10-21T14:32:35.390Z,72.90
2022-10-21T14:35:07.684Z,72.64
2022-10-21T14:37:37.969Z,72.53
2022-10-21T14:40:20.239Z,71.79
2022-10-21T14:42:52.469Z,71.90
2022-10-21T14:45:26.989Z,71.78
2022-10-21T14:48:02.695Z,72.10
2022-10-21T14:50:30.405Z,71.71
2022-10-21T14:52:58.676Z,71.80
2022-10-21T14:55:30.018Z,72.01
2022-10-21T14:58:04.430Z,72.23
2022-10-21T15:00:36.425Z,72.06
2022-10-21T15:03:05.463Z,72.17
2022-10-21T15:05:37.786Z,72.16
2022-10-21T15:08:29.245Z,72.89
2022-10-21T15:11:23.736Z,72.82
2022-10-21T15:14:00.141Z,72.71
2022-10-21T15:16:30.763Z,72.58
2022-10-21T15:19:06.650Z,72.78
2022-10-21T15:21:37.646Z,73.21
2022-10-21T15:24:06.730Z,72.76
2022-10-21T15:26:38.405Z,73.42
2022-10-21T15:29:14.489Z,73.57
2022-10-21T15:31:42.325Z,73.67
2022-10-21T15:34:16.018Z,74.30
2022-10-21T15:36:44.282Z,75.33
2022-10-21T15:39:12.631Z,75.36
2022-10-21T15:41:41.149Z,76.61
2022-10-21T15:44:18.721Z,77.65
2022-10-21T15:46:50.184Z,77.94
2022-10-21T15:49:21.460Z,77.06
2022-10-21T15:51:50.777Z,76.46
2022-10-21T15:54:19.706Z,76.27
2022-10-21T15:56:50.039Z,76.33
2022-10-21T15:59:20.069Z,75.90
2022-10-21T16:01:49.477Z,75.60
2022-10-21T16:04:19.101Z,75.14
2022-10-21T16:06:49.208Z,74.99
2022-10-21T16:09:21.003Z,74.72
2022-10-21T16:11:58.894Z,74.25
2022-10-21T16:14:29.500Z,74.62
2022-10-21T16:17:00.862Z,74.55
2022-10-21T16:19:30.046Z,74.07
2022-10-21T16:21:58.062Z,73.71
2022-10-21T16:24:25.892Z,73.74
2022-10-21T16:26:53.972Z,73.53
2022-10-21T16:29:23.692Z,74.07
2022-10-21T16:31:52.507Z,73.81
2022-10-21T16:34:20.156Z,73.50
2022-10-21T16:36:49.543Z,73.80
2022-10-21T16:39:19.831Z,73.76
2022-10-21T16:41:47.787Z,73.29
2022-10-21T16:44:15.801Z,73.32
2022-10-21T16:46:50.201Z,73.12
2022-10-21T16:49:23.351Z,73.51
2022-10-21T16:51:53.501Z,73.50
2022-10-21T16:54:22.557Z,73.33
2022-10-21T16:56:53.386Z,73.28
2022-10-21T16:59:22.998Z,73.17
2022-10-21T17:01:50.649Z,73.27
2022-10-21T17:04:18.417Z,73.23
2022-10-21T17:06:46.588Z,72.99
2022-10-21T17:09:15.894Z,73.23
2022-10-21T17:11:44.525Z,73.80
2022-10-21T17:14:16.546Z,73.59
2022-10-21T17:16:46.560Z,73.36
2022-10-21T17:19:14.898Z,73.41
2022-10-21T17:21:43.812Z,74.06
2022-10-21T17:24:15.867Z,74.54
2022-10-21T17:26:44.125Z,74.07
2022-10-21T17:29:12.393Z,74.51
2022-10-21T17:31:42.535Z,74.57
2022-10-21T17:34:27.582Z,74.76
2022-10-21T17:36:55.894Z,74.83
2022-10-21T17:39:25.477Z,75.15
2022-10-21T17:41:53.399Z,75.32
2022-10-21T17:44:21.504Z,75.20
2022-10-21T17:46:51.834Z,74.81
2022-10-21T17:49:19.580Z,74.45
2022-10-21T17:51:49.457Z,73.89
2022-10-21T17:54:17.416Z,74.14
2022-10-21T17:56:46.898Z,74.19
2022-10-21T17:59:14.567Z,73.80
2022-10-21T18:01:42.282Z,73.85
2022-10-21T18:04:11.425Z,73.76
2022-10-21T18:06:40.149Z,73.43
2022-10-21T18:09:08.924Z,73.59
2022-10-21T18:11:39.005Z,73.67
2022-10-21T18:14:08.002Z,74.33
2022-10-21T18:16:36.504Z,74.35
2022-10-21T18:19:04.176Z,74.09
2022-10-21T18:21:32.289Z,74.33
2022-10-21T18:23:59.959Z,74.48
2022-10-21T18:26:30.600Z,74.52
2022-10-21T18:29:00.791Z,74.78
2022-10-21T18:31:32.198Z,74.66
2022-10-21T18:34:02.058Z,74.64
2022-10-21T18:36:30.384Z,74.70
2022-10-21T18:38:59.434Z,74.79
2022-10-21T18:41:27.468Z,75.15
2022-10-21T18:43:56.511Z,75.02
2022-10-21T18:46:25.070Z,75.18
2022-10-21T18:48:54.101Z,75.04
2022-10-21T18:51:24.130Z,75.05
2022-10-21T18:53:53.080Z,75.33
2022-10-21T18:56:23.033Z,75.67
2022-10-21T18:58:51.354Z,75.39
2022-10-21T19:01:20.735Z,75.83
2022-10-21T19:03:50.710Z,76.01
2022-10-21T19:06:30.034Z,76.18
2022-10-21T19:08:57.900Z,75.89
2022-10-21T19:11:25.921Z,75.29
2022-10-21T19:13:53.562Z,75.70
2022-10-21T19:16:21.263Z,75.71
2022-10-21T19:18:48.919Z,75.76
2022-10-21T19:21:20.407Z,75.68
2022-10-21T19:23:48.625Z,76.23
2022-10-21T19:26:18.852Z,76.30
2022-10-21T19:28:49.562Z,76.59
2022-10-21T19:31:21.337Z,76.29
2022-10-21T19:33:49.202Z,76.24
2022-10-21T19:36:17.504Z,75.72
2022-10-21T19:38:46.479Z,75.19
2022-10-21T19:41:17.682Z,75.17
2022-10-21T19:43:45.553Z,75.06
2022-10-21T19:46:20.070Z,74.94
2022-10-21T19:48:50.309Z,74.83
2022-10-21T19:51:21.520Z,75.01
2022-10-21T19:53:51.627Z,75.50
2022-10-21T19:56:25.470Z,75.41
2022-10-21T19:58:55.831Z,76.19
2022-10-21T20:01:25.740Z,76.84
2022-10-21T20:03:54.891Z,76.61
2022-10-21T20:06:25.100Z,77.58
2022-10-21T20:08:56.341Z,77.26
2022-10-21T20:11:25.041Z,76.99
2022-10-21T20:13:53.078Z,76.99
2022-10-21T20:16:22.886Z,77.54
2022-10-21T20:18:51.083Z,77.49
2022-10-21T20:21:19.121Z,77.89
2022-10-21T20:23:46.998Z,77.50
2022-10-21T20:26:16.058Z,77.50
2022-10-21T20:28:44.351Z,77.52
2022-10-21T20:31:14.010Z,77.45
2022-10-21T20:33:43.365Z,77.59
2022-10-21T20:36:14.258Z,76.98
2022-10-21T20:38:42.206Z,77.54
2022-10-21T20:41:13.250Z,77.68
2022-10-21T20:43:43.265Z,77.80
2022-10-21T20:46:13.942Z,78.00
2022-10-21T20:48:42.823Z,77.86
2022-10-21T20:51:13.277Z,78.23
2022-10-21T20:53:45.417Z,78.40
2022-10-21T20:56:13.702Z,78.53
2022-10-21T20:58:43.321Z,78.90
2022-10-21T21:01:12.721Z,78.99
2022-10-21T21:03:42.656Z,79.56
2022-10-21T21:06:11.845Z,79.52
2022-10-21T21:08:48.875Z,79.38
2022-10-21T21:11:21.821Z,79.12
2022-10-21T21:13:50.828Z,78.86
2022-10-21T21:16:21.434Z,79.04
2022-10-21T21:18:52.300Z,79.16
2022-10-21T21:21:22.265Z,79.03
2022-10-21T21:23:50.461Z,78.89
2022-10-21T21:26:20.080Z,78.97
2022-10-21T21:28:49.089Z,79.26
2022-10-21T21:31:19.860Z,79.17
2022-10-21T21:33:48.045Z,79.17
2022-10-21T21:36:18.205Z,79.62
2022-10-21T21:38:45.903Z,79.61
2022-10-21T21:41:15.125Z,79.47
2022-10-21T21:43:43.661Z,78.91
2022-10-21T21:46:11.745Z,79.11
2022-10-21T21:48:44.415Z,79.11
2022-10-21T21:51:15.632Z,79.01
2022-10-21T21:53:43.294Z,79.19
2022-10-21T21:56:12.227Z,79.47
2022-10-21T21:58:40.230Z,79.12
2022-10-21T22:01:12.623Z,79.08
2022-10-21T22:03:41.989Z,79.24
2022-10-21T22:06:10.559Z,79.50
2022-10-21T22:08:39.723Z,80.06
2022-10-21T22:11:10.036Z,80.31
2022-10-21T22:13:38.345Z,80.57
2022-10-21T22:16:07.703Z,80.83
2022-10-21T22:18:35.730Z,81.19
2022-10-21T22:21:07.010Z,81.22
2022-10-21T22:23:34.818Z,81.43
2022-10-21T22:26:02.603Z,81.56
2022-10-21T22:28:30.331Z,82.36
2022-10-21T22:31:00.171Z,82.20
2022-10-21T22:33:28.084Z,81.56
2022-10-21T22:35:56.419Z,81.10
2022-10-21T22:38:25.957Z,81.23
2022-10-21T22:40:54.829Z,80.84
2022-10-21T22:43:22.862Z,81.32
2022-10-21T22:45:51.098Z,81.48
2022-10-21T22:48:19.178Z,81.28
2022-10-21T22:50:47.073Z,81.40
2022-10-21T22:53:15.814Z,81.74
2022-10-21T22:55:44.819Z,82.41
2022-10-21T22:58:16.600Z,82.13
2022-10-21T23:00:44.485Z,81.86
2022-10-21T23:03:12.494Z,81.68
2022-10-21T23:05:40.126Z,81.50
2022-10-21T23:08:08.198Z,81.90
2022-10-21T23:10:35.887Z,81.87
2022-10-21T23:13:06.130Z,81.91
2022-10-21T23:15:34.671Z,82.16
2022-10-21T23:18:02.738Z,81.86
2022-10-21T23:20:30.514Z,81.47
2022-10-21T23:22:58.649Z,81.51
2022-10-21T23:25:26.542Z,81.64
2022-10-21T23:27:54.730Z,81.62
2022-10-21T23:30:23.742Z,81.89
2022-10-21T23:32:52.285Z,81.99
2022-10-21T23:35:20.839Z,81.95
2022-10-21T23:37:49.313Z,82.10
2022-10-21T23:40:16.960Z,82.10
2022-10-21T23:42:44.934Z,82.16
2022-10-21T23:45:12.727Z,82.30
2022-10-21T23:47:42.396Z,82.63
2022-10-21T23:50:11.015Z,83.25
2022-10-21T23:52:39.175Z,83.23
2022-10-21T23:55:08.096Z,83.47
2022-10-21T23:57:36.594Z,82.76
